Montgomery, West Virginia
Current Conditions -  °F | °C
As of 3:54 PM on Sunday 21 Dec 2014 (Local Time) from KCRW Reporting Station
Scattered Clouds Scattered Clouds  
Wind Chill: 45°   Ceiling: Unl
Heat Index: 45°   Visibility: 10mi
Dew Point: 26°   Wind: 3mph
Humidity: 48%   Direction: 20°NNE
Pressure: 30.19"   Gusts: NA
Location:  38.18°N, 81.33°W
Report Text: KCRW 212054Z 02003KT 10SM SCT300 07/M03 A3019 RMK AO2 SLP229 T00721033 55014
Loading
Personal Weather Stations






























Interactive Weather Map New forecast layout! Learn more

10-Day Weather Forecast

Advertisements
Track Severe Weather on mobile